createdAt,value
2017-04-04T00:00:21.893Z,90.41
2017-04-04T00:01:21.890Z,90.41
2017-04-04T00:02:22.195Z,90.22
2017-04-04T00:03:21.844Z,90.22
2017-04-04T00:04:21.813Z,90.12
2017-04-04T00:05:22.101Z,90.59
2017-04-04T00:06:22.098Z,90.79
2017-04-04T00:07:21.759Z,90.5
2017-04-04T00:08:22.040Z,90.79
2017-04-04T00:09:22.021Z,90.79
2017-04-04T00:10:21.701Z,90.59
2017-04-04T00:11:21.688Z,90.31
2017-04-04T00:12:21.664Z,90.22
2017-04-04T00:13:21.632Z,90.22
2017-04-04T00:14:21.922Z,90.41
2017-04-04T00:15:21.890Z,90.41
2017-04-04T00:16:21.881Z,90.98
2017-04-04T00:17:21.552Z,90.5
2017-04-04T00:18:21.917Z,90.88
2017-04-04T00:19:21.819Z,91.17
2017-04-04T00:20:21.533Z,90.98
2017-04-04T00:21:21.778Z,91.46
2017-04-04T00:22:21.765Z,91.74
2017-04-04T00:23:21.738Z,91.74
2017-04-04T00:24:21.411Z,91.64
2017-04-04T00:25:21.701Z,91.27
2017-04-04T00:26:21.679Z,91.46
2017-04-04T00:27:21.357Z,91.64
2017-04-04T00:28:21.675Z,91.55
2017-04-04T00:29:21.618Z,91.83
2017-04-04T00:30:21.659Z,91.74
2017-04-04T00:31:21.590Z,91.74
2017-04-04T00:32:21.557Z,91.83
2017-04-04T00:33:21.229Z,91.64
2017-04-04T00:34:21.206Z,91.46
2017-04-04T00:35:21.191Z,91.55
2017-04-04T00:36:21.473Z,92.12
2017-04-04T00:37:21.160Z,92.27
2017-04-04T00:38:21.432Z,92.36
2017-04-04T00:39:21.412Z,92.27
2017-04-04T00:40:21.407Z,92.55
2017-04-04T00:41:21.366Z,92.65
2017-04-04T00:42:21.348Z,92.65
2017-04-04T00:43:21.336Z,92.17
2017-04-04T00:44:21.310Z,92.55
2017-04-04T00:45:21.027Z,92.46
2017-04-04T00:46:21.266Z,92.46
2017-04-04T00:47:21.255Z,92.55
2017-04-04T00:48:21.232Z,92.65
2017-04-04T00:49:20.904Z,93.12
2017-04-04T00:50:20.885Z,92.84
2017-04-04T00:51:21.166Z,92.84
2017-04-04T00:52:21.151Z,93.03
2017-04-04T00:53:21.133Z,93.12
2017-04-04T00:54:20.804Z,93.6
2017-04-04T00:55:20.782Z,93.41
2017-04-04T00:56:20.763Z,93.37
2017-04-04T00:57:21.053Z,93.32
2017-04-04T00:58:20.722Z,93.98
2017-04-04T00:59:21.002Z,93.79
2017-04-04T01:00:20.990Z,93.84
2017-04-04T01:01:20.972Z,93.37
2017-04-04T01:02:20.944Z,93.98
2017-04-04T01:03:20.928Z,93.84
2017-04-04T01:04:20.898Z,94.13
2017-04-04T01:05:20.876Z,93.93
2017-04-04T01:06:20.901Z,94.13
2017-04-04T01:07:20.541Z,93.93
2017-04-04T01:08:20.516Z,94.22
2017-04-04T01:09:20.802Z,94.13
2017-04-04T01:10:20.471Z,93.93
2017-04-04T01:11:20.455Z,93.93
2017-04-04T01:12:20.434Z,93.55
2017-04-04T01:13:20.420Z,93.74
2017-04-04T01:14:20.692Z,93.55
2017-04-04T01:15:20.369Z,93.65
2017-04-04T01:16:20.651Z,93.65
2017-04-04T01:17:20.631Z,94.22
2017-04-04T01:18:20.385Z,93.55
2017-04-04T01:19:20.592Z,93.65
2017-04-04T01:20:20.263Z,93.84
2017-04-04T01:21:20.551Z,93.74
2017-04-04T01:22:20.532Z,94.03
2017-04-04T01:23:20.201Z,93.84
2017-04-04T01:24:20.184Z,93.93
2017-04-04T01:25:20.470Z,94.22
2017-04-04T01:26:20.142Z,94.32
2017-04-04T01:27:20.421Z,94.03
2017-04-04T01:28:20.440Z,94.41
2017-04-04T01:29:20.382Z,94.32
2017-04-04T01:30:20.363Z,94.32
2017-04-04T01:31:20.392Z,94.13
2017-04-04T01:32:20.345Z,94.22
2017-04-04T01:33:20.301Z,94.7
2017-04-04T01:34:19.977Z,94.89
2017-04-04T01:35:20.254Z,94.79
2017-04-04T01:36:20.282Z,94.79
2017-04-04T01:37:20.218Z,94.7
2017-04-04T01:38:20.243Z,95.27
2017-04-04T01:39:20.171Z,94.6
2017-04-04T01:40:20.199Z,94.89
2017-04-04T01:41:19.835Z,94.7
2017-04-04T01:42:20.163Z,94.79
2017-04-04T01:43:20.140Z,94.51
2017-04-04T01:44:20.119Z,94.51
2017-04-04T01:45:19.777Z,94.41
2017-04-04T01:46:20.091Z,94.79
2017-04-04T01:47:20.054Z,94.6
2017-04-04T01:48:19.685Z,94.7
2017-04-04T01:49:19.662Z,94.41
2017-04-04T01:50:19.636Z,94.51
2017-04-04T01:51:19.611Z,94.79
2017-04-04T01:52:19.950Z,94.6
2017-04-04T01:53:19.890Z,94.51
2017-04-04T01:54:19.909Z,95.08
2017-04-04T01:55:19.844Z,95.32
2017-04-04T01:56:19.872Z,95.22
2017-04-04T01:57:19.790Z,95.7
2017-04-04T01:58:19.794Z,95.6
2017-04-04T01:59:19.454Z,95.79
2017-04-04T02:00:19.781Z,95.79
2017-04-04T02:01:19.404Z,95.79
2017-04-04T02:02:19.736Z,95.79
2017-04-04T02:03:19.668Z,95.6
2017-04-04T02:04:19.655Z,95.98
2017-04-04T02:05:19.324Z,95.51
2017-04-04T02:06:19.606Z,95.6
2017-04-04T02:07:19.588Z,95.6
2017-04-04T02:08:19.661Z,96.08
2017-04-04T02:09:19.248Z,95.7
2017-04-04T02:10:19.616Z,95.79
2017-04-04T02:11:19.502Z,95.79
2017-04-04T02:12:19.495Z,95.7
2017-04-04T02:13:19.460Z,96.27
2017-04-04T02:14:19.453Z,95.6
2017-04-04T02:15:19.412Z,95.6
2017-04-04T02:16:19.396Z,95.7
2017-04-04T02:17:19.070Z,96.46
2017-04-04T02:18:19.355Z,95.79
2017-04-04T02:19:19.333Z,96.08
2017-04-04T02:20:19.312Z,96.36
2017-04-04T02:21:19.297Z,95.98
2017-04-04T02:22:19.274Z,96.55
2017-04-04T02:23:19.254Z,96.55
2017-04-04T02:24:19.241Z,96.17
2017-04-04T02:25:19.204Z,96.27
2017-04-04T02:26:19.179Z,95.98
2017-04-04T02:27:19.163Z,96.27
2017-04-04T02:28:18.834Z,96.46
2017-04-04T02:29:18.811Z,96.46
2017-04-04T02:30:19.106Z,96.36
2017-04-04T02:31:18.776Z,96.36
2017-04-04T02:32:19.048Z,96.36
2017-04-04T02:33:19.033Z,96.65
2017-04-04T02:34:19.012Z,96.65
2017-04-04T02:35:18.994Z,96.75
2017-04-04T02:36:18.664Z,96.36
2017-04-04T02:37:18.953Z,96.65
2017-04-04T02:38:18.929Z,96.65
2017-04-04T02:39:18.910Z,96.94
2017-04-04T02:40:18.892Z,96.46
2017-04-04T02:41:18.863Z,96.27
2017-04-04T02:42:18.534Z,96.94
2017-04-04T02:43:18.824Z,96.65
2017-04-04T02:44:18.800Z,97.41
2017-04-04T02:45:18.802Z,97.51
2017-04-04T02:46:18.453Z,97.13
2017-04-04T02:47:18.827Z,96.84
2017-04-04T02:48:18.714Z,96.65
2017-04-04T02:49:18.694Z,97.13
2017-04-04T02:50:18.673Z,97.22
2017-04-04T02:51:18.342Z,97.03
2017-04-04T02:52:18.642Z,97.13
2017-04-04T02:53:18.403Z,97.31
2017-04-04T02:54:18.590Z,97.22
2017-04-04T02:55:18.583Z,97.13
2017-04-04T02:56:18.255Z,97.03
2017-04-04T02:57:18.523Z,97.17
2017-04-04T02:58:18.194Z,97.17
2017-04-04T02:59:18.490Z,97.27
2017-04-04T03:00:18.451Z,97.13
2017-04-04T03:01:18.440Z,97.17
2017-04-04T03:02:18.426Z,97.17
2017-04-04T03:03:18.200Z,97.27
2017-04-04T03:04:18.068Z,97.55
2017-04-04T03:05:18.462Z,97.84
2017-04-04T03:06:18.323Z,97.84
2017-04-04T03:07:18.072Z,97.74
2017-04-04T03:08:18.284Z,97.65
2017-04-04T03:09:18.383Z,97.65
2017-04-04T03:10:18.239Z,97.74
2017-04-04T03:11:18.211Z,98.41
2017-04-04T03:12:17.893Z,98.41
2017-04-04T03:13:18.499Z,98.41
2017-04-04T03:14:18.151Z,98.32
2017-04-04T03:15:17.834Z,98.03
2017-04-04T03:16:18.114Z,98.41
2017-04-04T03:17:18.104Z,98.22
2017-04-04T03:18:18.099Z,98.41
2017-04-04T03:19:17.798Z,98.32
2017-04-04T03:20:17.725Z,98.32
2017-04-04T03:21:18.001Z,98.5
2017-04-04T03:22:17.982Z,98.88
2017-04-04T03:23:17.963Z,98.88
2017-04-04T03:24:17.941Z,98.5
2017-04-04T03:25:17.616Z,99.08
2017-04-04T03:26:17.903Z,99.08
2017-04-04T03:27:17.568Z,98.88
2017-04-04T03:28:17.851Z,98.98
2017-04-04T03:29:17.529Z,98.6
2017-04-04T03:30:17.517Z,98.6
2017-04-04T03:31:17.839Z,99.08
2017-04-04T03:32:17.763Z,99.27
2017-04-04T03:33:17.741Z,98.6
2017-04-04T03:34:17.725Z,98.79
2017-04-04T03:35:17.693Z,99.08
2017-04-04T03:36:17.693Z,99.08
2017-04-04T03:37:17.354Z,98.88
2017-04-04T03:38:17.631Z,99.27
2017-04-04T03:39:17.301Z,99.36
2017-04-04T03:40:17.599Z,99.17
2017-04-04T03:41:17.571Z,99.08
2017-04-04T03:42:17.245Z,98.6
2017-04-04T03:43:17.227Z,99.65
2017-04-04T03:44:17.504Z,99.55
2017-04-04T03:45:17.484Z,99.46
2017-04-04T03:46:17.460Z,99.31
2017-04-04T03:47:17.441Z,99.08
2017-04-04T03:48:17.413Z,99.27
2017-04-04T03:49:17.084Z,99.17
2017-04-04T03:50:17.070Z,99.22
2017-04-04T03:51:17.350Z,99.41
2017-04-04T03:52:17.022Z,99.41
2017-04-04T03:53:17.006Z,99.5
2017-04-04T03:54:17.283Z,99.5
2017-04-04T03:55:17.270Z,99.41
2017-04-04T03:56:17.235Z,99.5
2017-04-04T03:57:17.216Z,99.6
2017-04-04T03:58:17.207Z,99.69
2017-04-04T03:59:17.186Z,99.69
2017-04-04T04:00:17.153Z,99.5
2017-04-04T04:01:16.832Z,99.88
2017-04-04T04:02:17.111Z,99.88
2017-04-04T04:03:17.091Z,99.69
2017-04-04T04:04:17.073Z,99.69
2017-04-04T04:05:17.042Z,99.98
2017-04-04T04:06:17.021Z,99.79
2017-04-04T04:07:17.006Z,99.79
2017-04-04T04:08:16.980Z,99.98
2017-04-04T04:09:16.968Z,99.99
2017-04-04T04:10:16.643Z,99.99
2017-04-04T04:11:16.913Z,99.99
2017-04-04T04:12:16.893Z,99.99
2017-04-04T04:13:16.870Z,99.98
2017-04-04T04:14:16.547Z,99.88
2017-04-04T04:15:16.821Z,99.99
2017-04-04T04:16:16.809Z,99.99
2017-04-04T04:17:16.790Z,99.88
2017-04-04T04:18:16.773Z,99.99
2017-04-04T04:19:16.734Z,99.88
2017-04-04T04:20:16.402Z,99.99
2017-04-04T04:21:16.689Z,99.99
2017-04-04T04:22:16.372Z,99.99
2017-04-04T04:23:16.652Z,99.99
2017-04-04T04:24:16.323Z,99.99
2017-04-04T04:25:16.601Z,99.99
2017-04-04T04:26:16.585Z,99.98
2017-04-04T04:27:16.569Z,99.88
2017-04-04T04:28:16.231Z,99.99
2017-04-04T04:29:16.562Z,99.99
2017-04-04T04:30:16.193Z,99.99
2017-04-04T04:31:16.554Z,99.99
2017-04-04T04:32:16.450Z,99.99
2017-04-04T04:33:16.124Z,99.99
2017-04-04T04:34:16.405Z,99.99
2017-04-04T04:35:16.445Z,99.99
2017-04-04T04:36:16.364Z,99.99
2017-04-04T04:37:16.040Z,99.99
2017-04-04T04:38:16.320Z,99.99
2017-04-04T04:39:16.301Z,99.99
2017-04-04T04:40:16.283Z,99.99
2017-04-04T04:41:16.251Z,99.99
2017-04-04T04:42:15.930Z,99.99
2017-04-04T04:43:16.221Z,99.99
2017-04-04T04:44:16.185Z,99.99
2017-04-04T04:45:16.171Z,99.99
2017-04-04T04:46:16.144Z,99.99
2017-04-04T04:47:16.112Z,99.99
2017-04-04T04:48:15.801Z,99.99
2017-04-04T04:49:16.091Z,99.99
2017-04-04T04:50:16.061Z,99.99
2017-04-04T04:51:15.724Z,99.99
2017-04-04T04:52:16.017Z,99.99
2017-04-04T04:53:16.082Z,99.99
2017-04-04T04:54:15.655Z,99.99
2017-04-04T04:55:15.634Z,99.99
2017-04-04T04:56:15.923Z,99.99
2017-04-04T04:57:15.925Z,99.99
2017-04-04T04:58:15.874Z,99.99
2017-04-04T04:59:15.971Z,99.99
2017-04-04T05:00:15.833Z,99.99
2017-04-04T05:01:15.511Z,99.99
2017-04-04T05:02:15.793Z,99.99
2017-04-04T05:03:15.893Z,99.99
2017-04-04T05:04:15.435Z,99.99
2017-04-04T05:05:15.418Z,99.99
2017-04-04T05:06:15.399Z,99.99
2017-04-04T05:07:15.678Z,99.99
2017-04-04T05:08:15.344Z,99.99
2017-04-04T05:09:15.324Z,99.99
2017-04-04T05:10:15.302Z,99.99
2017-04-04T05:11:15.602Z,99.99
2017-04-04T05:12:15.570Z,99.99
2017-04-04T05:13:15.542Z,99.99
2017-04-04T05:14:15.523Z,99.99
2017-04-04T05:15:15.491Z,99.99
2017-04-04T05:16:15.471Z,99.99
2017-04-04T05:17:15.449Z,99.99
2017-04-04T05:18:15.126Z,99.99
2017-04-04T05:19:15.403Z,99.99
2017-04-04T05:20:15.095Z,99.99
2017-04-04T05:21:15.062Z,99.99
2017-04-04T05:22:15.349Z,99.99
2017-04-04T05:23:15.321Z,99.99
2017-04-04T05:24:15.312Z,99.99
2017-04-04T05:25:14.978Z,99.99
2017-04-04T05:26:15.254Z,99.99
2017-04-04T05:27:14.922Z,99.99
2017-04-04T05:28:15.213Z,99.99
2017-04-04T05:29:15.192Z,99.99
2017-04-04T05:30:15.171Z,99.99
2017-04-04T05:31:15.143Z,99.99
2017-04-04T05:32:15.128Z,99.99
2017-04-04T05:33:15.102Z,99.99
2017-04-04T05:34:15.082Z,99.99
2017-04-04T05:35:15.061Z,99.99
2017-04-04T05:36:14.748Z,99.99
2017-04-04T05:37:15.012Z,99.99
2017-04-04T05:38:15.001Z,99.99
2017-04-04T05:39:14.973Z,99.99
2017-04-04T05:40:14.994Z,99.99
2017-04-04T05:41:14.627Z,99.99
2017-04-04T05:42:15.012Z,99.99
2017-04-04T05:43:14.882Z,99.99
2017-04-04T05:44:14.945Z,99.99
2017-04-04T05:45:14.835Z,99.99
2017-04-04T05:46:14.815Z,99.99
2017-04-04T05:47:14.803Z,99.99
2017-04-04T05:48:14.873Z,99.99
2017-04-04T05:49:14.814Z,99.99
2017-04-04T05:50:14.834Z,99.99
2017-04-04T05:51:14.707Z,99.99
2017-04-04T05:52:14.690Z,99.99
2017-04-04T05:53:14.669Z,99.99
2017-04-04T05:54:14.642Z,99.99
2017-04-04T05:55:14.617Z,99.99
2017-04-04T05:56:14.387Z,99.99
2017-04-04T05:57:14.264Z,99.99
2017-04-04T05:58:14.563Z,99.99
2017-04-04T05:59:14.226Z,99.99
2017-04-04T06:00:14.308Z,99.99
2017-04-04T06:01:14.484Z,99.99
2017-04-04T06:02:14.174Z,99.99
2017-04-04T06:03:14.444Z,99.99
2017-04-04T06:04:14.559Z,99.99
2017-04-04T06:05:14.089Z,99.99
2017-04-04T06:06:14.511Z,99.99
2017-04-04T06:07:14.360Z,99.99
2017-04-04T06:08:14.335Z,99.99
2017-04-04T06:09:14.013Z,99.99
2017-04-04T06:10:14.295Z,99.99
2017-04-04T06:11:14.267Z,99.99
2017-04-04T06:12:13.977Z,99.99
2017-04-04T06:13:14.225Z,99.99
2017-04-04T06:14:14.204Z,99.99
2017-04-04T06:15:14.185Z,99.99
2017-04-04T06:16:14.164Z,99.99
2017-04-04T06:17:14.152Z,99.99
2017-04-04T06:18:14.120Z,99.99
2017-04-04T06:19:14.099Z,99.99
2017-04-04T06:20:14.089Z,99.99
2017-04-04T06:21:13.754Z,99.99
2017-04-04T06:22:14.030Z,99.99
2017-04-04T06:23:13.714Z,99.99
2017-04-04T06:24:13.998Z,99.99
2017-04-04T06:25:13.973Z,99.99
2017-04-04T06:26:13.645Z,99.99
2017-04-04T06:27:13.633Z,99.99
2017-04-04T06:28:13.603Z,99.99
2017-04-04T06:29:13.892Z,99.98
2017-04-04T06:30:13.867Z,99.89
2017-04-04T06:31:13.843Z,99.6
2017-04-04T06:32:13.823Z,99.79
2017-04-04T06:33:13.803Z,99.51
2017-04-04T06:34:13.788Z,99.79
2017-04-04T06:35:13.756Z,99.32
2017-04-04T06:36:13.484Z,99.13
2017-04-04T06:37:13.723Z,99.6
2017-04-04T06:38:13.399Z,99.22
2017-04-04T06:39:13.695Z,99.6
2017-04-04T06:40:13.652Z,99.13
2017-04-04T06:41:13.638Z,98.79
2017-04-04T06:42:13.613Z,99.18
2017-04-04T06:43:13.590Z,98.94
2017-04-04T06:44:13.574Z,98.79
2017-04-04T06:45:13.552Z,98.6
2017-04-04T06:46:13.526Z,98.22
2017-04-04T06:47:13.203Z,98.41
2017-04-04T06:48:13.502Z,98.41
2017-04-04T06:49:13.482Z,98.32
2017-04-04T06:50:13.443Z,98.51
2017-04-04T06:51:13.425Z,98.41
2017-04-04T06:52:13.095Z,97.84
2017-04-04T06:53:13.386Z,97.65
2017-04-04T06:54:13.363Z,97.7
2017-04-04T06:55:13.335Z,97.22
2017-04-04T06:56:13.024Z,97.41
2017-04-04T06:57:13.303Z,97.03
2017-04-04T06:58:13.283Z,97.89
2017-04-04T06:59:13.253Z,98.36
2017-04-04T07:00:13.244Z,97.89
2017-04-04T07:01:13.224Z,97.13
2017-04-04T07:02:13.205Z,97.03
2017-04-04T07:03:13.193Z,97.13
2017-04-04T07:04:13.152Z,97.13
2017-04-04T07:05:13.143Z,96.56
2017-04-04T07:06:13.134Z,96.61
2017-04-04T07:07:13.113Z,95.94
2017-04-04T07:08:13.083Z,94.6
2017-04-04T07:09:12.757Z,93.7
2017-04-04T07:10:12.746Z,92.65
2017-04-04T07:11:13.034Z,91.93
2017-04-04T07:12:12.708Z,89.78
2017-04-04T07:13:12.992Z,88.05
2017-04-04T07:14:12.983Z,86.04
2017-04-04T07:15:12.961Z,84.88
2017-04-04T07:16:12.946Z,83.11
2017-04-04T07:17:12.922Z,81.67
2017-04-04T07:18:12.609Z,79.99
2017-04-04T07:19:12.593Z,78.93
2017-04-04T07:20:12.892Z,79.93
2017-04-04T07:21:12.561Z,78.78
2017-04-04T07:22:12.842Z,78.59
2017-04-04T07:23:12.525Z,77.48
2017-04-04T07:24:12.813Z,77.73
2017-04-04T07:25:12.813Z,78.02
2017-04-04T07:26:12.782Z,79.32
2017-04-04T07:27:12.478Z,79.26
2017-04-04T07:28:12.763Z,77.67
2017-04-04T07:29:12.733Z,76.52
2017-04-04T07:30:12.717Z,76.75
2017-04-04T07:31:12.714Z,76.46
2017-04-04T07:32:12.394Z,78.15
2017-04-04T07:33:12.683Z,79.75
2017-04-04T07:34:12.672Z,80.24
2017-04-04T07:35:12.652Z,80.04
2017-04-04T07:36:12.643Z,79.8
2017-04-04T07:37:12.625Z,79.03
2017-04-04T07:38:12.742Z,78.3
2017-04-04T07:39:12.597Z,78.69
2017-04-04T07:40:12.350Z,77.82
2017-04-04T07:41:12.593Z,79.07
2017-04-04T07:42:12.573Z,78.88
2017-04-04T07:43:12.241Z,78.02
2017-04-04T07:44:12.534Z,77.67
2017-04-04T07:45:12.215Z,77.67
2017-04-04T07:46:12.522Z,77.58
2017-04-04T07:47:12.516Z,77.19
2017-04-04T07:48:12.494Z,77.44
2017-04-04T07:49:12.550Z,77.63
2017-04-04T07:50:12.541Z,77.88
2017-04-04T07:51:12.544Z,77.73
2017-04-04T07:52:12.510Z,77.69
2017-04-04T07:53:12.496Z,77.82
2017-04-04T07:54:12.469Z,77.34
2017-04-04T07:55:12.521Z,76.23
2017-04-04T07:56:12.206Z,76.81
2017-04-04T07:57:12.474Z,78.27
2017-04-04T07:58:12.441Z,77.76
2017-04-04T07:59:12.416Z,76.42
2017-04-04T08:00:12.376Z,74.87
2017-04-04T08:01:12.381Z,73.94
2017-04-04T08:02:12.102Z,72.25
2017-04-04T08:03:12.443Z,72.09
2017-04-04T08:04:12.044Z,70.65
2017-04-04T08:05:12.393Z,69.69
2017-04-04T08:06:12.345Z,69.63
2017-04-04T08:07:12.338Z,70.17
2017-04-04T08:08:12.016Z,69.5
2017-04-04T08:09:12.321Z,69.21
2017-04-04T08:10:12.324Z,68.83
2017-04-04T08:11:12.312Z,68.48
2017-04-04T08:12:12.304Z,67.45
2017-04-04T08:13:12.293Z,67.29
2017-04-04T08:14:12.295Z,67.29
2017-04-04T08:15:12.289Z,66.07
2017-04-04T08:16:12.294Z,65.4
2017-04-04T08:17:12.273Z,65.91
2017-04-04T08:18:12.267Z,66.17
2017-04-04T08:19:12.258Z,65.05
2017-04-04T08:20:12.268Z,64.66
2017-04-04T08:21:12.261Z,64.37
2017-04-04T08:22:12.266Z,63.63
2017-04-04T08:23:12.295Z,63.15
2017-04-04T08:24:12.235Z,63.09
2017-04-04T08:25:12.251Z,62.73
2017-04-04T08:26:12.239Z,62.25
2017-04-04T08:27:12.251Z,62.54
2017-04-04T08:28:12.235Z,62.15
2017-04-04T08:29:12.241Z,61.28
2017-04-04T08:30:12.222Z,61.22
2017-04-04T08:31:12.212Z,61.83
2017-04-04T08:32:12.311Z,61.38
2017-04-04T08:33:12.217Z,61.47
2017-04-04T08:34:12.211Z,61.31
2017-04-04T08:35:12.200Z,60.64
2017-04-04T08:36:12.193Z,60.06
2017-04-04T08:37:12.194Z,60.93
2017-04-04T08:38:12.201Z,60.64
2017-04-04T08:39:12.177Z,60.41
2017-04-04T08:40:12.180Z,61.74
2017-04-04T08:41:12.184Z,62.41
2017-04-04T08:42:12.179Z,62.02
2017-04-04T08:43:12.168Z,61.09
2017-04-04T08:44:12.171Z,61.02
2017-04-04T08:45:12.167Z,61.02
2017-04-04T08:46:12.171Z,60.47
2017-04-04T08:47:12.203Z,60.09
2017-04-04T08:48:12.153Z,60.67
2017-04-04T08:49:12.147Z,59.6
2017-04-04T08:50:12.152Z,60.18
2017-04-04T08:51:12.149Z,60.64
2017-04-04T08:52:12.147Z,60.44
2017-04-04T08:53:12.148Z,59.8
2017-04-04T08:54:12.144Z,60.18
2017-04-04T08:55:12.142Z,59.89
2017-04-04T08:56:12.123Z,59.53
2017-04-04T08:57:12.126Z,58.7
2017-04-04T08:58:12.239Z,58.86
2017-04-04T08:59:12.119Z,58.7
2017-04-04T09:00:12.124Z,58.67
2017-04-04T09:01:12.119Z,58.67
2017-04-04T09:02:12.115Z,57.92
2017-04-04T09:03:12.171Z,57.37
2017-04-04T09:04:12.108Z,57.24
2017-04-04T09:05:12.139Z,58.02
2017-04-04T09:06:11.800Z,58.02
2017-04-04T09:07:12.098Z,57.28
2017-04-04T09:08:12.094Z,57.08
2017-04-04T09:09:12.093Z,56.24
2017-04-04T09:10:11.785Z,56.62
2017-04-04T09:11:11.786Z,56.98
2017-04-04T09:12:12.080Z,57.4
2017-04-04T09:13:12.113Z,57.28
2017-04-04T09:14:12.093Z,57.08
2017-04-04T09:15:12.095Z,56.3
2017-04-04T09:16:12.074Z,57.34
2017-04-04T09:17:12.074Z,57.54
2017-04-04T09:18:11.765Z,58.02
2017-04-04T09:19:11.786Z,57.08
2017-04-04T09:20:12.064Z,56.04
2017-04-04T09:21:12.059Z,55.88
2017-04-04T09:22:12.052Z,55.1
2017-04-04T09:23:11.772Z,54.62
2017-04-04T09:24:12.057Z,54.94
2017-04-04T09:25:12.071Z,55.04
2017-04-04T09:26:12.060Z,55.13
2017-04-04T09:27:11.790Z,54.64
2017-04-04T09:28:11.749Z,55.13
2017-04-04T09:29:12.055Z,55.88
2017-04-04T09:30:12.174Z,56.98
2017-04-04T09:31:12.053Z,55.85
2017-04-04T09:32:12.087Z,56.43
2017-04-04T09:33:12.049Z,55.92
2017-04-04T09:34:11.735Z,56.02
2017-04-04T09:35:12.048Z,55.92
2017-04-04T09:36:11.722Z,56.21
2017-04-04T09:37:12.045Z,56.79
2017-04-04T09:38:11.721Z,57.08
2017-04-04T09:39:11.721Z,56.24
2017-04-04T09:40:11.718Z,56.07
2017-04-04T09:41:12.020Z,55.98
2017-04-04T09:42:12.017Z,54.91
2017-04-04T09:43:12.020Z,54.98
2017-04-04T09:44:12.017Z,56.02
2017-04-04T09:45:12.022Z,56.02
2017-04-04T09:46:12.012Z,55.73
2017-04-04T09:47:12.002Z,55.27
2017-04-04T09:48:12.007Z,54.71
2017-04-04T09:49:11.995Z,54.98
2017-04-04T09:50:11.998Z,54.62
2017-04-04T09:51:11.998Z,55
2017-04-04T09:52:11.987Z,54.03
2017-04-04T09:53:11.980Z,53.75
2017-04-04T09:54:11.973Z,53.17
2017-04-04T09:55:12.103Z,54.81
2017-04-04T09:56:11.664Z,54.62
2017-04-04T09:57:11.668Z,54.23
2017-04-04T09:58:11.959Z,54.81
2017-04-04T09:59:11.968Z,54.23
2017-04-04T10:00:11.959Z,53.85
2017-04-04T10:01:12.065Z,54.88
2017-04-04T10:02:11.960Z,54.66
2017-04-04T10:03:12.001Z,54.95
2017-04-04T10:04:11.633Z,54.37
2017-04-04T10:05:11.942Z,54.95
2017-04-04T10:06:11.994Z,55.07
2017-04-04T10:07:11.631Z,53.85
2017-04-04T10:08:11.920Z,52.39
2017-04-04T10:09:11.942Z,52.29
2017-04-04T10:10:11.603Z,52.39
2017-04-04T10:11:11.914Z,52.49
2017-04-04T10:12:11.594Z,52.51
2017-04-04T10:13:11.891Z,53
2017-04-04T10:14:11.904Z,52.78
2017-04-04T10:15:11.900Z,53.17
2017-04-04T10:16:11.893Z,54.23
2017-04-04T10:17:11.866Z,53.26
2017-04-04T10:18:11.575Z,52.42
2017-04-04T10:19:11.554Z,52.46
2017-04-04T10:20:11.847Z,52.58
2017-04-04T10:21:11.864Z,52.97
2017-04-04T10:22:11.540Z,53.17
2017-04-04T10:23:11.846Z,53.45
2017-04-04T10:24:11.846Z,53.89
2017-04-04T10:25:11.824Z,54.73
2017-04-04T10:26:11.830Z,55.11
2017-04-04T10:27:11.511Z,54.35
2017-04-04T10:28:11.805Z,53.69
2017-04-04T10:29:11.801Z,53.77
2017-04-04T10:30:11.787Z,54.73
2017-04-04T10:31:11.823Z,54.37
2017-04-04T10:32:11.772Z,54.17
2017-04-04T10:33:11.773Z,53.79
2017-04-04T10:34:11.760Z,54.08
2017-04-04T10:35:11.439Z,54.47
2017-04-04T10:36:11.741Z,53.5
2017-04-04T10:37:11.733Z,53.79
2017-04-04T10:38:11.718Z,52.82
2017-04-04T10:39:11.712Z,52.34
2017-04-04T10:40:11.712Z,52.05
2017-04-04T10:41:11.709Z,52.29
2017-04-04T10:42:11.381Z,52.41
2017-04-04T10:43:11.690Z,52.05
2017-04-04T10:44:11.670Z,52.17
2017-04-04T10:45:11.666Z,51.81
2017-04-04T10:46:11.653Z,50.26
2017-04-04T10:47:11.354Z,49.9
2017-04-04T10:48:11.341Z,49.7
2017-04-04T10:49:11.324Z,50.5
2017-04-04T10:50:11.623Z,51.37
2017-04-04T10:51:11.309Z,50.72
2017-04-04T10:52:11.293Z,50.52
2017-04-04T10:53:11.601Z,50.65
2017-04-04T10:54:11.270Z,49.8
2017-04-04T10:55:11.572Z,49.51
2017-04-04T10:56:11.576Z,50.38
2017-04-04T10:57:11.259Z,50.35
2017-04-04T10:58:11.549Z,50.38
2017-04-04T10:59:11.544Z,49.8
2017-04-04T11:00:11.229Z,49.61
2017-04-04T11:01:11.532Z,49.41
2017-04-04T11:02:11.210Z,49.7
2017-04-04T11:03:11.511Z,49.7
2017-04-04T11:04:11.494Z,49.32
2017-04-04T11:05:11.493Z,50.16
2017-04-04T11:06:11.483Z,49.8
2017-04-04T11:07:11.471Z,48.74
2017-04-04T11:08:11.153Z,49.12
2017-04-04T11:09:11.453Z,48.83
2017-04-04T11:10:11.444Z,48.66
2017-04-04T11:11:11.461Z,48.93
2017-04-04T11:12:11.129Z,47.96
2017-04-04T11:13:11.424Z,48.35
2017-04-04T11:14:11.102Z,48.42
2017-04-04T11:15:11.393Z,48.71
2017-04-04T11:16:11.394Z,49.17
2017-04-04T11:17:11.380Z,48.69
2017-04-04T11:18:11.362Z,48.49
2017-04-04T11:19:11.052Z,48.52
2017-04-04T11:20:11.044Z,49
2017-04-04T11:21:11.347Z,49.68
2017-04-04T11:22:11.636Z,48.61
2017-04-04T11:23:11.333Z,47.94
2017-04-04T11:24:11.333Z,48.39
2017-04-04T11:25:11.318Z,48.18
2017-04-04T11:26:11.298Z,48.47
2017-04-04T11:27:11.299Z,48.64
2017-04-04T11:28:10.979Z,49.22
2017-04-04T11:29:11.271Z,50.26
2017-04-04T11:30:10.952Z,51.64
2017-04-04T11:31:11.256Z,51.18
2017-04-04T11:32:11.246Z,50.21
2017-04-04T11:33:11.250Z,51.54
2017-04-04T11:34:11.223Z,51.44
2017-04-04T11:35:11.214Z,50.67
2017-04-04T11:36:10.904Z,51.76
2017-04-04T11:37:11.202Z,50.4
2017-04-04T11:38:11.185Z,50.4
2017-04-04T11:39:11.194Z,52.05
2017-04-04T11:40:11.183Z,51.37
2017-04-04T11:41:11.165Z,51.5
2017-04-04T11:42:10.849Z,50.43
2017-04-04T11:43:11.141Z,50.7
2017-04-04T11:44:11.124Z,50.79
2017-04-04T11:45:11.125Z,50.96
2017-04-04T11:46:10.803Z,52.17
2017-04-04T11:47:11.111Z,52
2017-04-04T11:48:11.100Z,52.41
2017-04-04T11:49:10.774Z,52.99
2017-04-04T11:50:11.081Z,52.92
2017-04-04T11:51:10.753Z,51.59
2017-04-04T11:52:11.060Z,50.94
2017-04-04T11:53:11.054Z,49.97
2017-04-04T11:54:11.030Z,49.68
2017-04-04T11:55:11.020Z,49.1
2017-04-04T11:56:11.030Z,48.81
2017-04-04T11:57:10.799Z,48.9
2017-04-04T11:58:10.695Z,48.32
2017-04-04T11:59:10.741Z,47.74
2017-04-04T12:00:10.982Z,48.71
2017-04-04T12:01:10.964Z,47.55
2017-04-04T12:02:10.974Z,47.64
2017-04-04T12:03:10.940Z,47.64
2017-04-04T12:04:10.943Z,48.13
2017-04-04T12:05:10.926Z,46.09
2017-04-04T12:06:10.924Z,47.43
2017-04-04T12:07:10.732Z,46.17
2017-04-04T12:08:10.591Z,46.26
2017-04-04T12:09:10.894Z,45.22
2017-04-04T12:10:10.888Z,45.22
2017-04-04T12:11:10.888Z,45.81
2017-04-04T12:12:10.862Z,46.22
2017-04-04T12:13:10.929Z,47.89
2017-04-04T12:14:10.537Z,47.99
2017-04-04T12:15:10.915Z,47.5
2017-04-04T12:16:10.820Z,47.6
2017-04-04T12:17:10.926Z,48.11
2017-04-04T12:18:10.811Z,47.84
2017-04-04T12:19:10.530Z,47.94
2017-04-04T12:20:10.477Z,48.25
2017-04-04T12:21:10.491Z,47.86
2017-04-04T12:22:10.464Z,48.15
2017-04-04T12:23:10.770Z,47.5
2017-04-04T12:24:10.430Z,48.2
2017-04-04T12:25:10.739Z,49
2017-04-04T12:26:10.721Z,48.52
2017-04-04T12:27:10.409Z,48.52
2017-04-04T12:28:10.771Z,48.52
2017-04-04T12:29:10.697Z,48.42
2017-04-04T12:30:10.691Z,47.86
2017-04-04T12:31:10.373Z,47.67
2017-04-04T12:32:10.694Z,47.38
2017-04-04T12:33:10.370Z,48.71
2017-04-04T12:34:10.660Z,48.52
2017-04-04T12:35:10.333Z,48.52
2017-04-04T12:36:10.329Z,48.61
2017-04-04T12:37:10.620Z,48.22
2017-04-04T12:38:10.310Z,48.25
2017-04-04T12:39:10.295Z,49.39
2017-04-04T12:40:10.612Z,50.62
2017-04-04T12:41:10.273Z,50.09
2017-04-04T12:42:10.613Z,48.57
2017-04-04T12:43:10.563Z,48.11
2017-04-04T12:44:10.330Z,47.72
2017-04-04T12:45:10.552Z,47.36
2017-04-04T12:46:10.529Z,47.36
2017-04-04T12:47:10.222Z,48.11
2017-04-04T12:48:10.250Z,47.45
2017-04-04T12:49:10.520Z,47.06
2017-04-04T12:50:10.504Z,47.38
2017-04-04T12:51:10.169Z,47.19
2017-04-04T12:52:10.473Z,48.13
2017-04-04T12:53:10.156Z,47.55
2017-04-04T12:54:10.469Z,46.58
2017-04-04T12:55:10.135Z,46.66